sensor_id;sensor_type;location;lat;lon;timestamp;P1;durP1;ratioP1;P2;durP2;ratioP2
928;SDS011;451;47.988;7.842;2024-03-08T00:05:55;6.40;;;3.60;;
928;SDS011;451;47.988;7.842;2024-03-08T00:15:00;7.00;;;3.93;;
928;SDS011;451;47.988;7.842;2024-03-08T00:24:04;5.43;;;4.63;;
928;SDS011;451;47.988;7.842;2024-03-08T00:33:09;12.80;;;3.30;;
928;SDS011;451;47.988;7.842;2024-03-08T00:42:12;8.80;;;4.90;;
928;SDS011;451;47.988;7.842;2024-03-08T00:51:17;8.23;;;4.10;;
928;SDS011;451;47.988;7.842;2024-03-08T01:00:20;6.73;;;4.40;;
928;SDS011;451;47.988;7.842;2024-03-08T01:09:25;5.80;;;4.27;;
928;SDS011;451;47.988;7.842;2024-03-08T01:18:29;7.00;;;4.10;;
928;SDS011;451;47.988;7.842;2024-03-08T01:27:37;5.63;;;2.80;;
928;SDS011;451;47.988;7.842;2024-03-08T01:36:41;4.83;;;3.73;;
928;SDS011;451;47.988;7.842;2024-03-08T01:45:46;5.07;;;3.40;;
928;SDS011;451;47.988;7.842;2024-03-08T01:54:50;8.60;;;4.90;;
928;SDS011;451;47.988;7.842;2024-03-08T02:03:55;4.43;;;3.20;;
928;SDS011;451;47.988;7.842;2024-03-08T02:12:58;4.37;;;3.67;;
928;SDS011;451;47.988;7.842;2024-03-08T02:22:03;8.23;;;5.30;;
928;SDS011;451;47.988;7.842;2024-03-08T02:31:08;7.73;;;5.53;;
928;SDS011;451;47.988;7.842;2024-03-08T02:40:13;6.67;;;3.97;;
928;SDS011;451;47.988;7.842;2024-03-08T02:49:17;4.80;;;3.97;;
928;SDS011;451;47.988;7.842;2024-03-08T02:58:22;9.97;;;4.67;;
928;SDS011;451;47.988;7.842;2024-03-08T03:07:25;9.13;;;3.50;;
928;SDS011;451;47.988;7.842;2024-03-08T03:16:31;6.57;;;3.80;;
928;SDS011;451;47.988;7.842;2024-03-08T03:25:37;11.37;;;3.37;;
928;SDS011;451;47.988;7.842;2024-03-08T03:34:44;5.97;;;3.70;;
928;SDS011;451;47.988;7.842;2024-03-08T03:43:48;3.90;;;3.60;;
928;SDS011;451;47.988;7.842;2024-03-08T03:52:55;3.57;;;2.93;;
928;SDS011;451;47.988;7.842;2024-03-08T04:01:59;7.40;;;4.13;;
928;SDS011;451;47.988;7.842;2024-03-08T04:11:05;9.87;;;4.83;;
928;SDS011;451;47.988;7.842;2024-03-08T04:20:08;4.60;;;2.77;;
928;SDS011;451;47.988;7.842;2024-03-08T04:29:13;10.23;;;4.57;;
928;SDS011;451;47.988;7.842;2024-03-08T04:38:19;8.00;;;4.30;;
928;SDS011;451;47.988;7.842;2024-03-08T04:47:23;6.20;;;3.33;;
928;SDS011;451;47.988;7.842;2024-03-08T04:56:27;8.83;;;3.93;;
928;SDS011;451;47.988;7.842;2024-03-08T05:05:32;2.80;;;2.60;;
928;SDS011;451;47.988;7.842;2024-03-08T05:14:35;5.93;;;3.23;;
928;SDS011;451;47.988;7.842;2024-03-08T05:23:40;5.63;;;5.17;;
928;SDS011;451;47.988;7.842;2024-03-08T05:32:44;3.57;;;3.20;;
928;SDS011;451;47.988;7.842;2024-03-08T05:41:51;10.27;;;3.70;;
928;SDS011;451;47.988;7.842;2024-03-08T05:50:57;4.77;;;3.70;;
928;SDS011;451;47.988;7.842;2024-03-08T06:00:02;9.63;;;4.43;;
928;SDS011;451;47.988;7.842;2024-03-08T06:09:14;5.67;;;4.20;;
928;SDS011;451;47.988;7.842;2024-03-08T06:18:26;6.73;;;4.83;;
928;SDS011;451;47.988;7.842;2024-03-08T06:27:30;7.03;;;5.67;;
928;SDS011;451;47.988;7.842;2024-03-08T06:36:39;9.20;;;3.87;;
928;SDS011;451;47.988;7.842;2024-03-08T06:45:48;9.70;;;4.43;;
928;SDS011;451;47.988;7.842;2024-03-08T06:54:56;7.50;;;5.93;;
928;SDS011;451;47.988;7.842;2024-03-08T07:04:06;4.47;;;4.10;;
928;SDS011;451;47.988;7.842;2024-03-08T07:13:29;6.67;;;4.63;;
928;SDS011;451;47.988;7.842;2024-03-08T07:22:42;8.17;;;4.40;;
928;SDS011;451;47.988;7.842;2024-03-08T07:32:34;18.77;;;10.30;;
928;SDS011;451;47.988;7.842;2024-03-08T07:41:50;12.47;;;6.20;;
928;SDS011;451;47.988;7.842;2024-03-08T07:51:04;11.70;;;6.10;;
928;SDS011;451;47.988;7.842;2024-03-08T08:00:11;6.73;;;4.40;;
928;SDS011;451;47.988;7.842;2024-03-08T08:09:21;15.17;;;6.60;;
928;SDS011;451;47.988;7.842;2024-03-08T08:18:30;9.70;;;6.17;;
928;SDS011;451;47.988;7.842;2024-03-08T08:27:36;16.17;;;7.90;;
928;SDS011;451;47.988;7.842;2024-03-08T08:36:40;10.87;;;6.73;;
928;SDS011;451;47.988;7.842;2024-03-08T08:45:44;11.30;;;6.90;;
928;SDS011;451;47.988;7.842;2024-03-08T08:54:49;12.73;;;6.63;;
928;SDS011;451;47.988;7.842;2024-03-08T09:03:54;19.67;;;9.50;;
928;SDS011;451;47.988;7.842;2024-03-08T09:12:58;11.17;;;7.17;;
928;SDS011;451;47.988;7.842;2024-03-08T09:22:04;20.33;;;11.27;;
928;SDS011;451;47.988;7.842;2024-03-08T09:31:10;15.27;;;7.80;;
928;SDS011;451;47.988;7.842;2024-03-08T09:40:16;14.90;;;6.83;;
928;SDS011;451;47.988;7.842;2024-03-08T09:49:24;11.33;;;6.90;;
928;SDS011;451;47.988;7.842;2024-03-08T09:58:30;10.10;;;5.43;;
928;SDS011;451;47.988;7.842;2024-03-08T10:07:56;15.33;;;6.87;;
928;SDS011;451;47.988;7.842;2024-03-08T10:17:06;13.60;;;5.33;;
928;SDS011;451;47.988;7.842;2024-03-08T10:26:16;16.77;;;7.70;;
928;SDS011;451;47.988;7.842;2024-03-08T10:35:24;10.60;;;5.83;;
928;SDS011;451;47.988;7.842;2024-03-08T10:44:48;13.17;;;6.50;;
928;SDS011;451;47.988;7.842;2024-03-08T10:54:01;14.00;;;6.67;;
928;SDS011;451;47.988;7.842;2024-03-08T11:03:07;10.33;;;6.73;;
928;SDS011;451;47.988;7.842;2024-03-08T11:12:38;12.47;;;6.80;;
928;SDS011;451;47.988;7.842;2024-03-08T11:21:42;15.00;;;6.83;;
928;SDS011;451;47.988;7.842;2024-03-08T11:40:26;7.63;;;5.70;;
928;SDS011;451;47.988;7.842;2024-03-08T11:49:31;9.93;;;6.23;;
928;SDS011;451;47.988;7.842;2024-03-08T11:58:37;13.10;;;6.87;;
928;SDS011;451;47.988;7.842;2024-03-08T12:07:44;15.80;;;8.10;;
928;SDS011;451;47.988;7.842;2024-03-08T12:27:19;13.70;;;8.23;;
928;SDS011;451;47.988;7.842;2024-03-08T12:45:57;16.17;;;9.20;;
928;SDS011;451;47.988;7.842;2024-03-08T12:55:02;17.40;;;8.60;;
928;SDS011;451;47.988;7.842;2024-03-08T13:04:10;14.80;;;8.70;;
928;SDS011;451;47.988;7.842;2024-03-08T13:13:15;16.20;;;9.00;;
928;SDS011;451;47.988;7.842;2024-03-08T13:22:25;11.60;;;9.40;;
928;SDS011;451;47.988;7.842;2024-03-08T13:31:30;14.47;;;8.50;;
928;SDS011;451;47.988;7.842;2024-03-08T13:40:39;22.60;;;9.73;;
928;SDS011;451;47.988;7.842;2024-03-08T13:49:51;13.93;;;8.07;;
928;SDS011;451;47.988;7.842;2024-03-08T13:58:56;14.40;;;8.37;;
928;SDS011;451;47.988;7.842;2024-03-08T14:08:00;18.17;;;8.97;;
928;SDS011;451;47.988;7.842;2024-03-08T14:17:06;13.50;;;7.57;;
928;SDS011;451;47.988;7.842;2024-03-08T14:26:12;16.73;;;7.87;;
928;SDS011;451;47.988;7.842;2024-03-08T14:35:18;14.10;;;7.70;;
928;SDS011;451;47.988;7.842;2024-03-08T14:44:22;14.90;;;8.33;;
928;SDS011;451;47.988;7.842;2024-03-08T14:53:37;12.80;;;9.10;;
928;SDS011;451;47.988;7.842;2024-03-08T15:03:07;12.43;;;8.33;;
928;SDS011;451;47.988;7.842;2024-03-08T15:12:22;15.60;;;8.43;;
928;SDS011;451;47.988;7.842;2024-03-08T15:31:16;15.70;;;8.57;;
928;SDS011;451;47.988;7.842;2024-03-08T15:40:24;15.30;;;9.73;;
928;SDS011;451;47.988;7.842;2024-03-08T15:49:33;15.23;;;8.60;;
928;SDS011;451;47.988;7.842;2024-03-08T15:58:37;19.03;;;10.10;;
928;SDS011;451;47.988;7.842;2024-03-08T16:07:41;14.80;;;8.90;;
928;SDS011;451;47.988;7.842;2024-03-08T16:16:50;18.23;;;9.00;;
928;SDS011;451;47.988;7.842;2024-03-08T16:26:06;14.10;;;8.50;;
928;SDS011;451;47.988;7.842;2024-03-08T16:35:10;17.30;;;8.93;;
928;SDS011;451;47.988;7.842;2024-03-08T16:44:20;12.20;;;7.90;;
928;SDS011;451;47.988;7.842;2024-03-08T16:53:34;17.50;;;8.10;;
928;SDS011;451;47.988;7.842;2024-03-08T17:02:42;12.90;;;7.70;;
928;SDS011;451;47.988;7.842;2024-03-08T17:11:50;14.43;;;8.00;;
928;SDS011;451;47.988;7.842;2024-03-08T17:21:00;19.80;;;8.67;;
928;SDS011;451;47.988;7.842;2024-03-08T17:30:05;19.37;;;10.07;;
928;SDS011;451;47.988;7.842;2024-03-08T17:39:22;14.87;;;8.07;;
928;SDS011;451;47.988;7.842;2024-03-08T17:48:31;15.00;;;9.50;;
928;SDS011;451;47.988;7.842;2024-03-08T17:57:36;16.17;;;9.03;;
928;SDS011;451;47.988;7.842;2024-03-08T18:06:41;14.43;;;8.27;;
928;SDS011;451;47.988;7.842;2024-03-08T18:15:47;17.50;;;8.07;;
928;SDS011;451;47.988;7.842;2024-03-08T18:24:51;16.87;;;8.27;;
928;SDS011;451;47.988;7.842;2024-03-08T18:33:57;17.13;;;8.70;;
928;SDS011;451;47.988;7.842;2024-03-08T18:43:03;11.37;;;7.77;;
928;SDS011;451;47.988;7.842;2024-03-08T18:52:09;14.27;;;7.83;;
928;SDS011;451;47.988;7.842;2024-03-08T19:01:12;17.23;;;10.57;;
928;SDS011;451;47.988;7.842;2024-03-08T19:10:17;12.40;;;8.73;;
928;SDS011;451;47.988;7.842;2024-03-08T19:19:22;17.93;;;8.23;;
928;SDS011;451;47.988;7.842;2024-03-08T19:28:26;14.40;;;7.53;;
928;SDS011;451;47.988;7.842;2024-03-08T19:37:30;11.17;;;8.20;;
928;SDS011;451;47.988;7.842;2024-03-08T19:46:35;16.13;;;8.70;;
928;SDS011;451;47.988;7.842;2024-03-08T19:55:42;11.73;;;7.80;;
928;SDS011;451;47.988;7.842;2024-03-08T20:04:52;13.10;;;8.10;;
928;SDS011;451;47.988;7.842;2024-03-08T20:13:58;11.13;;;8.00;;
928;SDS011;451;47.988;7.842;2024-03-08T20:23:03;13.50;;;7.77;;
928;SDS011;451;47.988;7.842;2024-03-08T20:41:47;17.23;;;9.43;;
928;SDS011;451;47.988;7.842;2024-03-08T20:50:51;12.37;;;7.80;;
928;SDS011;451;47.988;7.842;2024-03-08T20:59:57;13.80;;;7.77;;
928;SDS011;451;47.988;7.842;2024-03-08T21:09:00;17.67;;;9.10;;
928;SDS011;451;47.988;7.842;2024-03-08T21:18:06;14.00;;;7.90;;
928;SDS011;451;47.988;7.842;2024-03-08T21:27:10;14.60;;;8.63;;
928;SDS011;451;47.988;7.842;2024-03-08T21:36:15;11.93;;;6.90;;
928;SDS011;451;47.988;7.842;2024-03-08T21:45:19;14.83;;;7.57;;
928;SDS011;451;47.988;7.842;2024-03-08T21:54:25;17.83;;;8.67;;
928;SDS011;451;47.988;7.842;2024-03-08T22:03:29;24.07;;;10.00;;
928;SDS011;451;47.988;7.842;2024-03-08T22:12:35;18.00;;;10.03;;
928;SDS011;451;47.988;7.842;2024-03-08T22:21:40;14.90;;;8.77;;
928;SDS011;451;47.988;7.842;2024-03-08T22:30:44;13.73;;;8.33;;
928;SDS011;451;47.988;7.842;2024-03-08T22:39:48;16.40;;;8.43;;
928;SDS011;451;47.988;7.842;2024-03-08T22:48:52;15.50;;;7.80;;
928;SDS011;451;47.988;7.842;2024-03-08T22:57:56;21.03;;;8.90;;
928;SDS011;451;47.988;7.842;2024-03-08T23:07:00;15.07;;;8.70;;
928;SDS011;451;47.988;7.842;2024-03-08T23:16:03;13.47;;;8.17;;
928;SDS011;451;47.988;7.842;2024-03-08T23:25:10;17.10;;;10.00;;
928;SDS011;451;47.988;7.842;2024-03-08T23:34:17;15.90;;;8.60;;
928;SDS011;451;47.988;7.842;2024-03-08T23:43:22;8.57;;;6.43;;
928;SDS011;451;47.988;7.842;2024-03-08T23:52:26;14.60;;;7.87;;
